createdAt,value
2022-11-13T00:01:27.654Z,1.00
2022-11-13T00:05:09.407Z,1.00
2022-11-13T00:08:55.617Z,1.00
2022-11-13T00:12:37.122Z,1.00
2022-11-13T00:16:20.342Z,1.00
2022-11-13T00:20:03.340Z,1.00
2022-11-13T00:23:45.397Z,1.00
2022-11-13T00:27:27.081Z,1.00
2022-11-13T00:31:09.760Z,1.00
2022-11-13T00:34:51.353Z,1.00
2022-11-13T00:38:34.266Z,1.00
2022-11-13T00:42:16.029Z,1.00
2022-11-13T00:45:57.537Z,1.00
2022-11-13T00:49:39.056Z,1.00
2022-11-13T00:53:20.629Z,1.00
2022-11-13T00:57:03.548Z,1.00
2022-11-13T01:00:47.777Z,1.00
2022-11-13T01:04:30.154Z,1.00
2022-11-13T01:08:13.048Z,1.00
2022-11-13T01:11:54.562Z,1.00
2022-11-13T01:15:39.837Z,1.00
2022-11-13T01:19:21.160Z,1.00
2022-11-13T01:23:02.512Z,1.00
2022-11-13T01:26:43.888Z,1.00
2022-11-13T01:30:25.302Z,1.00
2022-11-13T01:34:08.144Z,1.00
2022-11-13T01:37:49.539Z,1.00
2022-11-13T01:41:32.801Z,1.00
2022-11-13T01:46:03.081Z,1.00
2022-11-13T01:49:47.437Z,1.00
2022-11-13T01:53:29.484Z,1.00
2022-11-13T01:57:11.389Z,1.00
2022-11-13T02:00:52.645Z,1.00
2022-11-13T02:04:34.884Z,1.00
2022-11-13T02:08:18.168Z,1.00
2022-11-13T02:12:00.114Z,1.00
2022-11-13T02:15:42.517Z,1.00
2022-11-13T02:19:30.584Z,1.00
2022-11-13T02:23:20.193Z,1.00
2022-11-13T02:27:06.872Z,1.00
2022-11-13T02:30:48.824Z,1.00
2022-11-13T02:34:30.291Z,1.00
2022-11-13T02:38:11.687Z,1.00
2022-11-13T02:41:53.139Z,1.00
2022-11-13T02:45:38.510Z,1.00
2022-11-13T02:49:20.134Z,1.00
2022-11-13T02:53:01.786Z,1.00
2022-11-13T02:56:43.327Z,1.00
2022-11-13T03:00:25.000Z,1.00
2022-11-13T03:04:07.656Z,1.00
2022-11-13T03:07:49.223Z,1.00
2022-11-13T03:11:30.578Z,1.00
2022-11-13T03:15:12.269Z,1.00
2022-11-13T03:18:53.887Z,1.00
2022-11-13T03:22:36.569Z,1.00
2022-11-13T03:26:19.639Z,1.00
2022-11-13T03:30:01.355Z,1.00
2022-11-13T03:33:43.140Z,1.00
2022-11-13T03:37:24.615Z,1.00
2022-11-13T03:41:07.352Z,1.00
2022-11-13T03:44:48.691Z,1.00
2022-11-13T03:48:30.549Z,1.00
2022-11-13T03:52:11.937Z,1.00
2022-11-13T03:55:53.594Z,1.00
2022-11-13T03:59:36.424Z,1.00
2022-11-13T04:03:17.985Z,1.00
2022-11-13T04:06:59.418Z,1.00
2022-11-13T04:10:40.856Z,1.00
2022-11-13T04:14:22.112Z,1.00
2022-11-13T04:18:05.062Z,1.00
2022-11-13T04:21:46.478Z,1.00
2022-11-13T04:25:28.366Z,1.00
2022-11-13T04:29:10.000Z,1.00
2022-11-13T04:32:51.249Z,1.00
2022-11-13T04:36:34.052Z,1.00
2022-11-13T04:40:15.716Z,1.00
2022-11-13T04:43:56.455Z,1.00
2022-11-13T04:47:37.996Z,1.00
2022-11-13T04:51:19.413Z,1.00
2022-11-13T04:55:02.027Z,1.00
2022-11-13T04:58:43.313Z,1.00
2022-11-13T05:02:25.030Z,1.00
2022-11-13T05:06:08.363Z,1.00
2022-11-13T05:09:50.061Z,1.00
2022-11-13T05:13:33.956Z,1.00
2022-11-13T05:17:15.282Z,1.00
2022-11-13T05:20:56.701Z,1.00
2022-11-13T05:24:38.285Z,1.00
2022-11-13T05:28:19.975Z,1.00
2022-11-13T05:32:02.847Z,1.00
2022-11-13T05:35:44.446Z,1.00
2022-11-13T05:39:25.868Z,1.00
2022-11-13T05:43:07.272Z,1.00
2022-11-13T05:46:48.685Z,1.00
2022-11-13T05:50:31.376Z,1.00
2022-11-13T05:54:12.682Z,1.00
2022-11-13T05:57:54.261Z,1.00
2022-11-13T06:01:37.791Z,1.00
2022-11-13T06:05:18.991Z,1.00
2022-11-13T06:09:03.776Z,1.00
2022-11-13T06:12:45.351Z,1.00
2022-11-13T06:16:28.919Z,1.00
2022-11-13T06:20:10.916Z,1.00
2022-11-13T06:23:52.491Z,1.00
2022-11-13T06:27:35.228Z,1.00
2022-11-13T06:31:18.140Z,1.00
2022-11-13T06:34:59.418Z,1.00
2022-11-13T06:38:41.945Z,1.00
2022-11-13T06:42:23.695Z,1.00
2022-11-13T06:46:08.597Z,1.00
2022-11-13T06:49:50.304Z,1.00
2022-11-13T06:53:33.052Z,1.00
2022-11-13T06:57:14.699Z,1.00
2022-11-13T07:00:56.152Z,1.00
2022-11-13T07:04:39.006Z,1.00
2022-11-13T07:08:20.772Z,1.00
2022-11-13T07:12:02.035Z,1.00
2022-11-13T07:15:43.371Z,1.00
2022-11-13T07:19:24.816Z,1.00
2022-11-13T07:23:07.667Z,1.00
2022-11-13T07:26:49.001Z,1.00
2022-11-13T07:30:30.585Z,1.00
2022-11-13T07:34:12.451Z,1.00
2022-11-13T07:37:56.594Z,1.00
2022-11-13T07:41:39.395Z,1.00
2022-11-13T07:45:20.829Z,1.00
2022-11-13T07:49:02.181Z,1.00
2022-11-13T07:52:43.917Z,1.00
2022-11-13T07:56:25.434Z,1.00
2022-11-13T08:00:09.715Z,1.00
2022-11-13T08:03:50.934Z,1.00
2022-11-13T08:07:32.325Z,1.00
2022-11-13T08:11:13.852Z,1.00
2022-11-13T08:14:55.365Z,1.00
2022-11-13T08:18:38.113Z,1.00
2022-11-13T08:22:19.798Z,1.00
2022-11-13T08:26:05.758Z,1.00
2022-11-13T08:29:47.214Z,1.00
2022-11-13T08:33:28.696Z,1.00
2022-11-13T08:37:11.708Z,1.00
2022-11-13T08:40:53.202Z,1.00
2022-11-13T08:44:34.644Z,1.00
2022-11-13T08:48:16.354Z,1.00
2022-11-13T08:51:57.949Z,1.00
2022-11-13T08:55:40.580Z,1.00
2022-11-13T08:59:23.512Z,1.00
2022-11-13T09:03:05.281Z,1.00
2022-11-13T09:06:46.657Z,1.00
2022-11-13T09:10:28.800Z,1.00
2022-11-13T09:14:11.777Z,1.00
2022-11-13T09:17:56.718Z,1.00
2022-11-13T09:21:38.014Z,1.00
2022-11-13T09:25:19.588Z,1.00
2022-11-13T09:29:01.199Z,1.00
2022-11-13T09:32:44.195Z,1.00
2022-11-13T09:36:25.554Z,1.00
2022-11-13T09:40:08.784Z,1.00
2022-11-13T09:43:59.257Z,1.00
2022-11-13T09:47:46.202Z,1.00
2022-11-13T09:51:30.951Z,1.00
2022-11-13T09:55:14.337Z,1.00
2022-11-13T09:59:03.185Z,1.00
2022-11-13T10:02:56.146Z,1.00
2022-11-13T10:06:51.739Z,1.00
2022-11-13T10:10:48.270Z,1.00
2022-11-13T10:14:37.748Z,1.00
2022-11-13T10:18:23.268Z,1.00
2022-11-13T10:22:31.738Z,1.00
2022-11-13T10:26:16.491Z,1.00
2022-11-13T10:29:58.365Z,1.00
2022-11-13T10:33:41.216Z,1.00
2022-11-13T10:37:40.965Z,1.00
2022-11-13T10:41:23.092Z,1.00
2022-11-13T10:45:11.107Z,1.00
2022-11-13T10:48:55.076Z,1.00
2022-11-13T10:52:46.076Z,1.00
2022-11-13T10:56:30.447Z,1.00
2022-11-13T11:00:24.839Z,1.00
2022-11-13T11:04:12.588Z,1.00
2022-11-13T11:07:55.274Z,1.00
2022-11-13T11:11:54.364Z,1.00
2022-11-13T11:15:43.069Z,1.00
2022-11-13T11:19:29.359Z,1.00
2022-11-13T11:23:22.560Z,1.00
2022-11-13T11:27:09.305Z,99.90
2022-11-13T11:30:54.140Z,99.90
2022-11-13T11:34:41.945Z,99.90
2022-11-13T11:38:28.437Z,99.90
2022-11-13T11:42:20.460Z,99.90
2022-11-13T11:46:01.909Z,99.90
2022-11-13T11:49:46.277Z,99.90
2022-11-13T11:53:36.544Z,99.90
2022-11-13T11:57:39.520Z,99.90
2022-11-13T12:01:36.404Z,99.90
2022-11-13T12:05:24.536Z,99.90
2022-11-13T12:09:13.733Z,99.90
2022-11-13T12:13:06.551Z,99.90
2022-11-13T12:16:59.685Z,99.90
2022-11-13T12:20:48.033Z,99.90
2022-11-13T12:24:52.475Z,99.90
2022-11-13T12:28:42.617Z,99.90
2022-11-13T12:33:08.459Z,99.90
2022-11-13T12:36:52.176Z,99.90
2022-11-13T12:40:44.162Z,99.90
2022-11-13T12:44:28.834Z,99.90
2022-11-13T12:48:10.773Z,99.90
2022-11-13T12:51:57.076Z,99.90
2022-11-13T12:55:41.145Z,99.90
2022-11-13T12:59:34.459Z,99.90
2022-11-13T13:03:42.658Z,99.90
2022-11-13T13:07:44.595Z,99.90
2022-11-13T13:11:37.297Z,99.90
2022-11-13T13:15:32.599Z,99.90
2022-11-13T13:19:26.803Z,93.00
2022-11-13T13:23:27.736Z,83.20
2022-11-13T13:27:23.772Z,75.90
2022-11-13T13:31:15.267Z,64.90
2022-11-13T13:35:05.421Z,57.60
2022-11-13T13:38:53.204Z,50.30
2022-11-13T13:42:50.297Z,42.90
2022-11-13T13:46:32.979Z,36.80
2022-11-13T13:50:17.329Z,30.00
2022-11-13T13:54:02.722Z,24.80
2022-11-13T13:57:44.705Z,20.10
2022-11-13T14:01:32.015Z,16.20
2022-11-13T14:05:26.320Z,12.70
2022-11-13T14:09:17.949Z,9.10
2022-11-13T14:12:59.378Z,6.60
2022-11-13T14:17:00.375Z,3.20
2022-11-13T14:20:46.465Z,1.00
2022-11-13T14:24:34.005Z,1.00
2022-11-13T14:28:18.472Z,1.00
2022-11-13T14:32:05.261Z,1.00
2022-11-13T14:35:53.196Z,1.00
2022-11-13T14:39:36.374Z,1.00
2022-11-13T14:43:21.567Z,1.00
2022-11-13T14:47:05.472Z,1.00
2022-11-13T14:50:51.179Z,1.00
2022-11-13T14:55:00.005Z,1.00
2022-11-13T14:58:40.001Z,1.00
2022-11-13T15:02:21.669Z,1.00
2022-11-13T15:06:03.317Z,1.00
2022-11-13T15:09:44.766Z,1.00
2022-11-13T15:13:26.517Z,1.00
2022-11-13T15:17:15.370Z,1.00
2022-11-13T15:20:56.981Z,1.00
2022-11-13T15:24:38.605Z,1.00
2022-11-13T15:28:20.089Z,1.00
2022-11-13T15:32:01.888Z,1.00
2022-11-13T15:35:44.692Z,1.00
2022-11-13T15:39:26.421Z,1.00
2022-11-13T15:43:14.510Z,3.70
2022-11-13T15:46:56.119Z,7.40
2022-11-13T15:50:38.062Z,12.30
2022-11-13T15:54:27.873Z,16.00
2022-11-13T15:58:15.496Z,19.10
2022-11-13T16:01:58.382Z,21.10
2022-11-13T16:05:40.036Z,22.90
2022-11-13T16:09:22.863Z,25.90
2022-11-13T16:13:04.536Z,27.00
2022-11-13T16:16:46.045Z,28.00
2022-11-13T16:20:27.558Z,30.20
2022-11-13T16:24:11.801Z,31.90
2022-11-13T16:27:54.857Z,34.00
2022-11-13T16:31:36.440Z,36.50
2022-11-13T16:35:20.155Z,39.00
2022-11-13T16:39:01.709Z,41.60
2022-11-13T16:42:43.172Z,43.80
2022-11-13T16:46:30.236Z,45.00
2022-11-13T16:50:15.350Z,47.60
2022-11-13T16:53:57.125Z,49.00
2022-11-13T16:57:38.676Z,52.10
2022-11-13T17:01:22.319Z,54.10
2022-11-13T17:05:06.222Z,55.70
2022-11-13T17:08:50.260Z,57.60
2022-11-13T17:12:31.893Z,59.50
2022-11-13T17:16:13.540Z,61.50
2022-11-13T17:19:55.543Z,63.20
2022-11-13T17:23:38.280Z,66.10
2022-11-13T17:27:19.669Z,70.20
2022-11-13T17:31:04.585Z,72.80
2022-11-13T17:34:45.836Z,75.70
2022-11-13T17:38:28.349Z,78.30
2022-11-13T17:42:11.325Z,81.80
2022-11-13T17:45:53.786Z,84.30
2022-11-13T17:49:35.260Z,86.60
2022-11-13T17:53:16.632Z,89.90
2022-11-13T17:56:58.052Z,91.10
2022-11-13T18:00:40.753Z,92.50
2022-11-13T18:04:22.437Z,93.30
2022-11-13T18:08:05.918Z,95.00
2022-11-13T18:11:47.347Z,96.10
2022-11-13T18:15:28.685Z,97.50
2022-11-13T18:19:11.340Z,99.00
2022-11-13T18:22:52.739Z,99.90
2022-11-13T18:26:34.639Z,99.90
2022-11-13T18:30:16.209Z,99.90
2022-11-13T18:33:59.649Z,99.90
2022-11-13T18:37:42.729Z,99.90
2022-11-13T18:41:24.872Z,99.90
2022-11-13T18:45:07.784Z,99.90
2022-11-13T18:48:50.121Z,99.90
2022-11-13T18:52:32.645Z,99.90
2022-11-13T18:56:17.199Z,99.90
2022-11-13T18:59:58.563Z,99.90
2022-11-13T19:03:50.815Z,99.90
2022-11-13T19:07:43.644Z,99.90
2022-11-13T19:11:28.501Z,99.90
2022-11-13T19:15:11.124Z,99.90
2022-11-13T19:18:54.743Z,99.90
2022-11-13T19:22:36.048Z,99.90
2022-11-13T19:26:17.335Z,99.90
2022-11-13T19:29:59.897Z,99.90
2022-11-13T19:33:41.911Z,99.90
2022-11-13T19:37:23.632Z,99.90
2022-11-13T19:41:06.731Z,99.90
2022-11-13T19:44:48.333Z,99.90
2022-11-13T19:48:31.346Z,99.90
2022-11-13T19:52:13.068Z,99.90
2022-11-13T19:55:57.929Z,99.90
2022-11-13T19:59:40.359Z,99.90
2022-11-13T20:03:22.661Z,99.90
2022-11-13T20:07:06.782Z,99.90
2022-11-13T20:10:49.284Z,99.90
2022-11-13T20:14:34.437Z,99.90
2022-11-13T20:18:19.747Z,99.90
2022-11-13T20:22:01.047Z,99.90
2022-11-13T20:25:43.713Z,99.90
2022-11-13T20:29:25.461Z,99.90
2022-11-13T20:33:06.865Z,99.90
2022-11-13T20:36:48.245Z,99.90
2022-11-13T20:40:29.688Z,99.90
2022-11-13T20:44:14.575Z,99.90
2022-11-13T20:47:56.282Z,99.90
2022-11-13T20:51:37.661Z,99.90
2022-11-13T20:55:19.237Z,99.90
2022-11-13T20:59:00.908Z,99.90
2022-11-13T21:02:44.008Z,99.90
2022-11-13T21:06:25.972Z,99.90
2022-11-13T21:10:08.284Z,99.90
2022-11-13T21:13:51.199Z,99.90
2022-11-13T21:17:32.421Z,99.90
2022-11-13T21:21:18.655Z,99.90
2022-11-13T21:25:00.332Z,99.90
2022-11-13T21:28:41.894Z,99.90
2022-11-13T21:32:23.556Z,99.90
2022-11-13T21:36:06.235Z,99.90
2022-11-13T21:39:49.360Z,99.90
2022-11-13T21:43:31.077Z,99.90
2022-11-13T21:47:12.586Z,99.90
2022-11-13T21:50:53.987Z,99.90
2022-11-13T21:54:35.651Z,99.90
2022-11-13T21:58:18.986Z,99.90
2022-11-13T22:02:00.856Z,99.90
2022-11-13T22:05:42.255Z,99.90
2022-11-13T22:09:25.784Z,99.90
2022-11-13T22:13:07.651Z,99.90
2022-11-13T22:16:50.446Z,99.90
2022-11-13T22:20:31.774Z,99.90
2022-11-13T22:24:13.959Z,99.90
2022-11-13T22:27:55.476Z,99.90
2022-11-13T22:31:38.120Z,99.90
2022-11-13T22:35:20.823Z,99.90
2022-11-13T22:39:02.404Z,99.90
2022-11-13T22:42:43.933Z,99.90
2022-11-13T22:46:27.701Z,99.90
2022-11-13T22:50:09.919Z,99.90
2022-11-13T22:53:54.302Z,99.90
2022-11-13T22:57:35.935Z,99.90
2022-11-13T23:01:19.198Z,99.90
2022-11-13T23:05:00.801Z,99.90
2022-11-13T23:08:42.297Z,99.90
2022-11-13T23:12:25.064Z,99.90
2022-11-13T23:16:06.808Z,99.90
2022-11-13T23:19:48.435Z,99.90
2022-11-13T23:23:30.049Z,99.90
2022-11-13T23:27:11.611Z,99.90
2022-11-13T23:30:54.658Z,99.90
2022-11-13T23:34:58.046Z,99.90
2022-11-13T23:38:37.908Z,99.90
2022-11-13T23:42:39.373Z,99.90
2022-11-13T23:46:22.424Z,99.90
2022-11-13T23:50:03.784Z,99.90
2022-11-13T23:53:45.231Z,99.90
2022-11-13T23:57:26.447Z,99.90
